Time;durP1;ratioP1;P1;durP2;ratioP2;P2;SDS_P1;SDS_P2;PMS_P1;PMS_P2;Temp;Humidity;BMP_temperature;BMP_pressure;BME280_temperature;BME280_humidity;BME280_pressure;Samples;Min_cycle;Max_cycle;Signal;HPM_P1;HPM_P2
2022/05/16 00:02:09;;;;;;;13.98;4.30;;;13.00;99.90;;;;;;5029398;28;20047;-85
2022/05/16 00:04:38;;;;;;;13.50;4.35;;;13.00;99.90;;;;;;5029756;28;20122;-85
2022/05/16 00:07:04;;;;;;;10.63;3.90;;;13.00;99.90;;;;;;5028864;28;20361;-86
2022/05/16 00:09:29;;;;;;;15.65;4.22;;;13.00;99.90;;;;;;5046513;28;20475;-85
2022/05/16 00:11:55;;;;;;;12.50;4.35;;;13.00;99.90;;;;;;5063181;28;20041;-85
2022/05/16 00:14:21;;;;;;;12.95;3.95;;;13.00;99.90;;;;;;5061780;28;20059;-86
2022/05/16 00:16:46;;;;;;;19.48;4.30;;;13.00;99.90;;;;;;5046896;28;20048;-85
2022/05/16 00:19:12;;;;;;;11.20;4.10;;;13.00;99.90;;;;;;5029139;28;20041;-86
2022/05/16 00:21:38;;;;;;;11.43;4.35;;;13.00;99.90;;;;;;5029143;28;20044;-85
2022/05/16 00:24:04;;;;;;;11.43;3.53;;;13.00;99.90;;;;;;5030233;28;20128;-86
2022/05/16 00:26:30;;;;;;;11.55;4.15;;;13.00;99.90;;;;;;5045228;28;20040;-86
2022/05/16 00:28:56;;;;;;;13.90;3.95;;;12.90;99.90;;;;;;5065923;28;20486;-86
2022/05/16 00:31:21;;;;;;;18.08;4.72;;;12.90;99.90;;;;;;5049282;28;20048;-86
2022/05/16 00:33:47;;;;;;;12.70;4.20;;;12.90;99.90;;;;;;5049946;28;20376;-85
2022/05/16 00:36:13;;;;;;;12.10;4.68;;;12.90;99.90;;;;;;5048374;28;20045;-85
2022/05/16 00:38:38;;;;;;;18.95;5.07;;;12.80;99.90;;;;;;5049636;28;20116;-86
2022/05/16 00:41:05;;;;;;;10.13;4.03;;;12.80;99.90;;;;;;5049347;28;20056;-86
2022/05/16 00:43:44;;;;;;;9.45;3.78;;;12.80;99.90;;;;;;5065492;28;20047;-86
2022/05/16 00:46:11;;;;;;;11.40;4.00;;;12.80;99.90;;;;;;5048726;28;20148;-86
2022/05/16 00:48:37;;;;;;;11.93;4.20;;;12.80;99.90;;;;;;5066380;28;20048;-86
2022/05/16 00:51:06;;;;;;;12.30;3.88;;;12.80;99.90;;;;;;5048314;28;20047;-86
2022/05/16 00:53:31;;;;;;;11.77;4.15;;;12.80;99.90;;;;;;5049663;28;20040;-85
2022/05/16 00:55:57;;;;;;;9.05;3.90;;;12.70;99.90;;;;;;5065606;28;20460;-85
2022/05/16 00:58:24;;;;;;;10.45;3.75;;;12.70;99.90;;;;;;5072130;28;20044;-86
2022/05/16 01:00:50;;;;;;;9.35;3.45;;;12.60;99.90;;;;;;5065916;28;20572;-86
2022/05/16 01:06:05;;;;;;;10.48;3.88;;;12.60;99.90;;;;;;5065108;28;20045;-87
2022/05/16 01:08:34;;;;;;;11.50;3.88;;;12.60;99.90;;;;;;5049676;28;20063;-86
2022/05/16 01:11:05;;;;;;;10.38;3.60;;;12.60;99.90;;;;;;5048532;28;20051;-85
2022/05/16 01:13:32;;;;;;;10.75;2.97;;;12.60;99.90;;;;;;5049028;28;20107;-85
2022/05/16 01:15:59;;;;;;;7.90;2.80;;;12.60;99.90;;;;;;5048968;28;20048;-86
2022/05/16 01:18:26;;;;;;;7.18;3.10;;;12.70;99.90;;;;;;5048420;28;20048;-86
2022/05/16 01:20:54;;;;;;;11.90;3.40;;;12.50;99.90;;;;;;5052083;28;20087;-85
2022/05/16 01:23:23;;;;;;;7.32;2.75;;;12.50;99.90;;;;;;5052555;28;20040;-86
2022/05/16 01:25:51;;;;;;;8.73;3.10;;;12.50;99.90;;;;;;5052878;28;20373;-85
2022/05/16 01:28:19;;;;;;;9.60;2.85;;;12.50;99.90;;;;;;5068837;28;20044;-86
2022/05/16 01:30:47;;;;;;;13.27;3.42;;;12.40;99.90;;;;;;5052760;28;20044;-87
2022/05/16 01:33:15;;;;;;;13.65;3.53;;;12.40;99.90;;;;;;5051606;28;20047;-86
2022/05/16 01:35:41;;;;;;;9.05;2.50;;;12.40;99.90;;;;;;5068892;28;20045;-86
2022/05/16 01:38:19;;;;;;;6.25;2.28;;;12.30;99.90;;;;;;5051559;28;20129;-86
2022/05/16 01:40:47;;;;;;;5.43;2.83;;;12.30;99.90;;;;;;5052371;28;20040;-87
2022/05/16 01:43:13;;;;;;;6.22;2.28;;;12.30;99.90;;;;;;5052077;28;20099;-87
2022/05/16 01:45:42;;;;;;;10.30;3.00;;;12.30;99.90;;;;;;5068844;28;20081;-88
2022/05/16 01:48:09;;;;;;;7.18;2.90;;;12.30;99.90;;;;;;5068593;28;20514;-86
2022/05/16 01:50:35;;;;;;;6.88;2.38;;;12.20;99.90;;;;;;5067500;28;20568;-86
2022/05/16 01:53:01;;;;;;;7.10;2.20;;;12.20;99.90;;;;;;5051496;28;20102;-87
2022/05/16 01:55:27;;;;;;;7.55;2.20;;;12.20;99.90;;;;;;5052172;28;20048;-86
2022/05/16 01:57:53;;;;;;;4.60;2.03;;;12.10;99.90;;;;;;5054414;28;20139;-87
2022/05/16 02:00:19;;;;;;;5.88;1.98;;;12.10;99.90;;;;;;5071025;28;20460;-86
2022/05/16 02:02:45;;;;;;;7.53;2.25;;;12.10;99.90;;;;;;5071974;28;20074;-86
2022/05/16 02:05:16;;;;;;;7.13;2.13;;;12.00;99.90;;;;;;5071255;28;20044;-85
2022/05/16 02:07:42;;;;;;;6.15;2.15;;;12.00;99.90;;;;;;5071033;28;20063;-86
2022/05/16 02:10:10;;;;;;;5.80;2.20;;;12.00;99.90;;;;;;5072061;28;20040;-86
2022/05/16 02:12:36;;;;;;;4.90;1.98;;;11.90;99.90;;;;;;5071698;28;20056;-86
2022/05/16 02:15:04;;;;;;;7.20;1.90;;;11.90;99.90;;;;;;5071422;28;20036;-85
2022/05/16 02:17:30;;;;;;;5.90;1.92;;;11.90;99.90;;;;;;5055631;28;20468;-85
2022/05/16 02:19:56;;;;;;;8.77;2.35;;;11.80;99.90;;;;;;5070958;28;20036;-87
2022/05/16 02:25:06;;;;;;;7.20;2.80;;;11.80;99.90;;;;;;5071127;28;20055;-86
2022/05/16 02:27:32;;;;;;;4.95;2.03;;;11.80;99.90;;;;;;5053977;28;20073;-87
2022/05/16 02:29:58;;;;;;;5.53;2.10;;;11.80;99.90;;;;;;5071530;28;20063;-86
2022/05/16 02:32:24;;;;;;;6.10;2.20;;;11.80;99.90;;;;;;5070296;28;20044;-86
2022/05/16 02:34:50;;;;;;;8.13;2.55;;;11.80;99.90;;;;;;5054120;28;20047;-87
2022/05/16 02:37:16;;;;;;;5.82;2.17;;;11.80;99.90;;;;;;5054405;28;20039;-85
2022/05/16 02:39:45;;;;;;;5.28;2.50;;;11.80;99.90;;;;;;5054371;28;20048;-86
2022/05/16 02:42:12;;;;;;;6.40;2.22;;;11.70;99.90;;;;;;5054021;28;20048;-87
2022/05/16 02:44:39;;;;;;;8.65;2.20;;;11.70;99.90;;;;;;5070722;28;20098;-86
2022/05/16 02:47:05;;;;;;;9.45;2.08;;;11.70;99.90;;;;;;5054225;28;20040;-86
2022/05/16 02:49:32;;;;;;;11.13;2.10;;;11.70;99.90;;;;;;5053703;28;20464;-86
2022/05/16 02:51:58;;;;;;;6.45;2.13;;;11.70;99.90;;;;;;5054924;28;20059;-86
2022/05/16 02:54:24;;;;;;;4.18;1.85;;;11.70;99.90;;;;;;5054266;28;20061;-87
2022/05/16 02:56:50;;;;;;;6.70;2.28;;;11.70;99.90;;;;;;5070363;28;20131;-87
2022/05/16 02:59:16;;;;;;;7.20;2.10;;;11.60;99.90;;;;;;5053350;28;20048;-86
2022/05/16 03:01:42;;;;;;;5.35;1.92;;;11.60;99.90;;;;;;5054662;28;20169;-86
2022/05/16 03:04:08;;;;;;;6.75;2.13;;;11.60;99.90;;;;;;5053866;28;20448;-88
2022/05/16 03:06:34;;;;;;;6.80;2.10;;;11.60;99.90;;;;;;5054255;28;20105;-86
2022/05/16 03:09:00;;;;;;;7.22;1.80;;;11.60;99.90;;;;;;5053914;28;20047;-86
2022/05/16 03:11:25;;;;;;;7.45;1.92;;;11.60;99.90;;;;;;5070190;28;20539;-87
2022/05/16 03:13:51;;;;;;;7.65;2.10;;;11.60;99.90;;;;;;5070056;28;20142;-86
2022/05/16 03:16:18;;;;;;;9.00;2.28;;;11.60;99.90;;;;;;5070394;28;20044;-86
2022/05/16 03:18:43;;;;;;;3.70;1.70;;;11.50;99.90;;;;;;5070213;28;20537;-85
2022/05/16 03:21:10;;;;;;;8.45;2.30;;;11.50;99.90;;;;;;5069442;28;20039;-86
2022/05/16 03:23:36;;;;;;;6.25;1.95;;;11.50;99.90;;;;;;5069782;28;20089;-85
2022/05/16 03:26:01;;;;;;;7.07;2.30;;;11.40;99.90;;;;;;5053182;28;20044;-85
2022/05/16 03:28:27;;;;;;;4.80;1.83;;;11.40;99.90;;;;;;5070207;28;20055;-85
2022/05/16 03:30:55;;;;;;;6.22;1.70;;;11.40;99.90;;;;;;5070068;28;20755;-86
2022/05/16 03:33:21;;;;;;;8.27;2.15;;;11.40;99.90;;;;;;5070016;28;20051;-85
2022/05/16 03:35:47;;;;;;;6.25;1.90;;;11.30;99.90;;;;;;5069990;28;20407;-85
2022/05/16 03:40:42;;;;;;;6.13;2.03;;;11.30;99.90;;;;;;5068708;28;20052;-86
2022/05/16 03:40:58;;;;;;;5.45;2.05;;;11.30;99.90;;;;;;5069743;28;20058;-85
2022/05/16 03:43:25;;;;;;;8.43;2.13;;;11.30;99.90;;;;;;5058678;28;20127;-85
2022/05/16 03:45:50;;;;;;;7.85;2.17;;;11.30;99.90;;;;;;5069588;28;20081;-87
2022/05/16 03:48:16;;;;;;;7.15;2.55;;;11.10;99.90;;;;;;5053111;28;20042;-86
2022/05/16 03:50:42;;;;;;;6.55;2.25;;;11.20;99.90;;;;;;5053002;28;20054;-86
2022/05/16 03:53:08;;;;;;;4.18;2.00;;;11.20;99.90;;;;;;5051917;28;20104;-85
2022/05/16 03:55:34;;;;;;;8.40;2.30;;;11.30;99.90;;;;;;5054045;28;20169;-85
2022/05/16 03:57:59;;;;;;;6.68;1.98;;;11.20;99.90;;;;;;5052596;28;20055;-85
2022/05/16 04:00:26;;;;;;;3.83;1.95;;;11.20;99.90;;;;;;5068835;28;20059;-84
2022/05/16 04:02:51;;;;;;;5.93;1.83;;;11.30;99.90;;;;;;5053228;28;20051;-85
2022/05/16 04:05:20;;;;;;;5.65;2.03;;;11.30;99.90;;;;;;5052009;28;20047;-87
2022/05/16 04:07:47;;;;;;;11.75;2.10;;;11.30;99.90;;;;;;5069531;28;20044;-86
2022/05/16 04:10:14;;;;;;;5.78;2.03;;;11.30;99.90;;;;;;5070822;28;20143;-85
2022/05/16 04:12:40;;;;;;;6.93;1.90;;;11.30;99.90;;;;;;5052745;28;20482;-85
2022/05/16 04:15:07;;;;;;;5.97;2.30;;;11.30;99.90;;;;;;5051596;28;20044;-86
2022/05/16 04:17:33;;;;;;;6.15;1.92;;;11.30;99.90;;;;;;5053242;28;20082;-84
2022/05/16 04:20:00;;;;;;;6.22;2.05;;;11.40;99.90;;;;;;5068336;28;20058;-85
2022/05/16 04:22:26;;;;;;;4.82;1.73;;;11.40;99.90;;;;;;5069565;28;20112;-85
2022/05/16 04:24:52;;;;;;;5.78;2.08;;;11.40;99.90;;;;;;5052970;28;20432;-85
2022/05/16 04:27:18;;;;;;;5.05;2.10;;;11.50;99.90;;;;;;5068617;28;20036;-84
2022/05/16 04:29:43;;;;;;;7.50;2.25;;;11.50;99.90;;;;;;5100909;28;20138;-84
2022/05/16 04:32:09;;;;;;;9.18;2.08;;;11.60;99.90;;;;;;5109002;28;20046;-86
2022/05/16 04:34:35;;;;;;;4.43;1.80;;;11.60;99.90;;;;;;5110933;28;20116;-85
2022/05/16 04:37:00;;;;;;;8.32;2.30;;;11.60;99.90;;;;;;5093215;28;20135;-86
2022/05/16 04:39:26;;;;;;;6.95;1.88;;;11.70;99.90;;;;;;5076627;28;20039;-87
2022/05/16 04:44:38;;;;;;;5.97;1.90;;;11.80;99.90;;;;;;5089084;28;20047;-85
2022/05/16 04:47:05;;;;;;;4.88;1.88;;;11.80;99.90;;;;;;5072025;28;20043;-86
2022/05/16 04:49:32;;;;;;;7.55;2.20;;;11.90;99.90;;;;;;5090799;28;20051;-85
2022/05/16 04:51:58;;;;;;;8.38;2.08;;;11.90;99.90;;;;;;5089987;28;20043;-85
2022/05/16 04:54:24;;;;;;;12.15;2.63;;;12.00;99.90;;;;;;5073550;28;20036;-85
2022/05/16 04:56:51;;;;;;;7.90;2.15;;;12.00;99.90;;;;;;5093089;28;20048;-85
2022/05/16 04:59:18;;;;;;;7.18;2.13;;;12.20;99.90;;;;;;5071932;28;20234;-85
2022/05/16 05:01:44;;;;;;;7.20;2.50;;;12.20;99.90;;;;;;5090481;28;20127;-85
2022/05/16 05:04:09;;;;;;;5.32;2.10;;;12.30;99.90;;;;;;5071685;28;20484;-86
2022/05/16 05:06:35;;;;;;;8.05;1.90;;;12.40;99.90;;;;;;5089817;28;20058;-85
2022/05/16 05:09:01;;;;;;;5.93;2.20;;;12.40;99.90;;;;;;5089187;28;20040;-84
2022/05/16 05:16:55;;;;;;;7.15;1.67;;;12.60;99.90;;;;;;5069022;28;20411;-85
2022/05/16 05:19:21;;;;;;;4.70;1.70;;;12.70;99.90;;;;;;5068279;28;20048;-85
2022/05/16 05:21:47;;;;;;;8.77;2.25;;;12.80;99.90;;;;;;5069049;28;20048;-85
2022/05/16 05:24:13;;;;;;;5.80;2.10;;;12.90;99.90;;;;;;5051540;28;20043;-84
2022/05/16 05:26:39;;;;;;;7.57;2.00;;;12.90;99.90;;;;;;5069072;28;20059;-86
2022/05/16 05:29:05;;;;;;;6.57;2.08;;;13.00;99.90;;;;;;5068412;28;20052;-85
2022/05/16 05:31:31;;;;;;;7.82;1.95;;;13.00;99.90;;;;;;5052250;28;20080;-86
2022/05/16 05:33:58;;;;;;;8.60;1.90;;;13.00;99.90;;;;;;5068656;28;20891;-86
2022/05/16 05:36:25;;;;;;;8.45;2.28;;;13.00;99.90;;;;;;5051952;28;20432;-86
2022/05/16 05:38:51;;;;;;;7.72;2.10;;;13.10;99.90;;;;;;5069826;28;20053;-85
2022/05/16 05:41:19;;;;;;;8.48;2.20;;;13.10;99.90;;;;;;5053791;28;20055;-85
2022/05/16 05:43:45;;;;;;;5.68;1.92;;;13.20;99.90;;;;;;5053401;28;20036;-84
2022/05/16 05:46:11;;;;;;;5.57;2.17;;;13.20;99.90;;;;;;5051145;28;20143;-85
2022/05/16 05:48:36;;;;;;;7.00;2.00;;;13.40;99.90;;;;;;5068856;28;20054;-85
2022/05/16 05:51:03;;;;;;;6.38;2.05;;;13.40;99.90;;;;;;5051317;28;20043;-85
2022/05/16 05:53:29;;;;;;;5.85;2.50;;;13.50;99.90;;;;;;5068765;28;20469;-85
2022/05/16 05:55:55;;;;;;;10.52;2.33;;;13.60;99.90;;;;;;5068501;28;20152;-86
2022/05/16 05:58:21;;;;;;;4.80;2.17;;;13.70;99.90;;;;;;5046049;28;20098;-86
2022/05/16 06:00:46;;;;;;;8.70;2.67;;;13.80;99.90;;;;;;5048566;28;20053;-85
2022/05/16 06:03:13;;;;;;;7.88;2.15;;;14.00;99.90;;;;;;5056957;28;20081;-85
2022/05/16 06:05:38;;;;;;;8.25;2.13;;;14.20;99.90;;;;;;5081848;28;20105;-85
2022/05/16 06:08:04;;;;;;;8.00;2.25;;;14.20;99.90;;;;;;5073591;28;20456;-84
2022/05/16 06:10:31;;;;;;;8.75;2.33;;;14.30;99.90;;;;;;5090283;28;20376;-85
2022/05/16 06:12:56;;;;;;;9.38;2.13;;;14.20;99.90;;;;;;5078423;28;20051;-85
2022/05/16 06:15:22;;;;;;;5.88;2.35;;;14.30;99.90;;;;;;5087697;28;20052;-84
2022/05/16 06:17:49;;;;;;;5.70;2.30;;;14.40;99.90;;;;;;5072054;28;20036;-85
2022/05/16 06:20:15;;;;;;;6.43;2.33;;;14.50;99.90;;;;;;5086448;28;20044;-85
2022/05/16 06:22:41;;;;;;;7.35;2.22;;;14.60;99.90;;;;;;5059362;28;20041;-85
2022/05/16 06:27:56;;;;;;;8.05;2.30;;;14.90;99.90;;;;;;5067912;28;20064;-84
2022/05/16 06:30:22;;;;;;;10.57;2.30;;;14.90;99.90;;;;;;5049128;28;20054;-84
2022/05/16 06:32:48;;;;;;;10.48;2.20;;;14.90;99.90;;;;;;5040244;28;20171;-84
2022/05/16 06:35:15;;;;;;;8.18;2.20;;;14.90;99.90;;;;;;5038035;28;20166;-84
2022/05/16 06:37:41;;;;;;;9.10;2.50;;;14.90;99.90;;;;;;5059969;28;20040;-84
2022/05/16 06:40:08;;;;;;;13.52;3.10;;;14.80;99.90;;;;;;5038022;28;20156;-84
2022/05/16 06:42:34;;;;;;;9.20;2.00;;;14.90;99.90;;;;;;5038699;28;20044;-84
2022/05/16 06:45:00;;;;;;;8.18;2.40;;;14.80;99.90;;;;;;5057214;28;20066;-84
2022/05/16 06:47:25;;;;;;;6.28;2.53;;;14.80;99.90;;;;;;5055238;28;20048;-85
2022/05/16 06:49:52;;;;;;;8.23;2.90;;;14.90;99.90;;;;;;5056245;28;20040;-85
2022/05/16 06:52:18;;;;;;;7.07;2.00;;;14.90;99.90;;;;;;5054644;28;20424;-85
2022/05/16 06:54:44;;;;;;;8.50;2.50;;;15.10;99.90;;;;;;5056275;28;20040;-84
2022/05/16 06:57:10;;;;;;;6.93;2.03;;;15.30;99.90;;;;;;5056191;28;20041;-86
2022/05/16 06:59:36;;;;;;;7.47;2.33;;;15.50;99.90;;;;;;5069837;28;20052;-85
2022/05/16 07:02:03;;;;;;;13.98;2.50;;;15.70;99.90;;;;;;5077828;28;20510;-86
2022/05/16 07:04:29;;;;;;;7.75;2.40;;;15.90;99.90;;;;;;5088619;28;20759;-85
2022/05/16 07:06:54;;;;;;;12.25;3.88;;;16.10;99.90;;;;;;5088102;28;20134;-85
2022/05/16 07:09:20;;;;;;;17.25;3.58;;;16.30;99.90;;;;;;5069770;28;20505;-85
2022/05/16 07:11:46;;;;;;;11.90;2.58;;;16.50;99.90;;;;;;5071106;28;20407;-85
2022/05/16 07:14:12;;;;;;;8.27;2.50;;;16.70;99.90;;;;;;5089271;28;20126;-86
2022/05/16 07:16:38;;;;;;;7.55;2.25;;;16.80;99.90;;;;;;5104256;28;20498;-86
2022/05/16 07:19:04;;;;;;;11.10;2.88;;;16.90;99.90;;;;;;5082211;28;20526;-87
2022/05/16 07:21:30;;;;;;;14.90;2.17;;;16.90;99.90;;;;;;5081736;28;20083;-85
2022/05/16 07:23:56;;;;;;;14.32;2.40;;;17.00;99.90;;;;;;5088638;28;20046;-86
2022/05/16 07:29:06;;;;;;;11.98;2.63;;;17.10;99.90;;;;;;5093152;28;20044;-87
2022/05/16 07:31:31;;;;;;;17.60;2.78;;;17.10;99.90;;;;;;5098850;28;20043;-86
2022/05/16 07:33:58;;;;;;;9.57;2.10;;;17.20;99.90;;;;;;5070817;28;20052;-86
2022/05/16 07:36:24;;;;;;;9.32;2.05;;;17.30;99.90;;;;;;5087154;28;20070;-86
2022/05/16 07:38:50;;;;;;;9.60;2.03;;;17.50;99.90;;;;;;5094156;28;20063;-86
2022/05/16 07:41:16;;;;;;;7.72;2.00;;;17.70;99.90;;;;;;5079301;28;20388;-86
2022/05/16 07:43:42;;;;;;;6.65;2.28;;;17.90;99.90;;;;;;5094212;28;20035;-86
2022/05/16 07:46:08;;;;;;;9.32;2.53;;;18.10;99.90;;;;;;5094815;28;20179;-88
2022/05/16 07:48:34;;;;;;;9.32;2.47;;;18.20;99.90;;;;;;5077503;28;20054;-84
2022/05/16 07:51:00;;;;;;;12.73;2.33;;;18.30;99.90;;;;;;5081644;28;20047;-84
2022/05/16 07:53:26;;;;;;;11.15;2.35;;;18.40;99.90;;;;;;5086645;28;20043;-84
2022/05/16 07:55:55;;;;;;;7.50;2.42;;;18.50;99.90;;;;;;5091084;28;20039;-84
2022/05/16 07:58:22;;;;;;;9.07;2.00;;;18.60;99.90;;;;;;5093094;28;20533;-83
2022/05/16 08:00:49;;;;;;;11.73;2.40;;;18.70;99.90;;;;;;5077564;28;20078;-84
2022/05/16 08:03:16;;;;;;;19.40;2.97;;;18.90;99.90;;;;;;5085218;28;20071;-83
2022/05/16 08:05:42;;;;;;;14.98;2.63;;;19.10;99.90;;;;;;5064548;28;20044;-84
2022/05/16 08:10:53;;;;;;;9.45;2.22;;;19.30;99.90;;;;;;5067011;28;20064;-83
2022/05/16 08:13:19;;;;;;;12.43;2.22;;;19.50;99.90;;;;;;5064392;28;20476;-83
2022/05/16 08:15:45;;;;;;;11.88;2.65;;;19.60;99.90;;;;;;5066407;28;20044;-83
2022/05/16 08:18:12;;;;;;;8.38;2.13;;;19.80;99.90;;;;;;5065578;28;20130;-84
2022/05/16 08:20:41;;;;;;;10.05;2.40;;;19.80;99.90;;;;;;5065113;28;20053;-84
2022/05/16 08:23:07;;;;;;;10.52;2.40;;;19.80;99.90;;;;;;5065410;28;20041;-83
2022/05/16 08:25:33;;;;;;;12.32;2.30;;;19.90;99.90;;;;;;5066997;28;20056;-83
2022/05/16 08:27:59;;;;;;;9.50;2.30;;;19.80;99.90;;;;;;5065291;28;20624;-83
2022/05/16 08:30:25;;;;;;;7.95;2.13;;;19.90;99.90;;;;;;5052816;28;20466;-83
2022/05/16 08:32:52;;;;;;;9.02;1.98;;;20.00;99.90;;;;;;5071999;28;20068;-83
2022/05/16 08:35:19;;;;;;;7.07;1.80;;;20.10;99.90;;;;;;5067942;28;20138;-85
2022/05/16 08:40:57;;;;;;;13.10;2.58;;;20.30;99.90;;;;;;5069415;28;20135;-84
2022/05/16 08:43:46;;;;;;;10.07;2.35;;;20.40;99.90;;;;;;5068976;28;20045;-84
2022/05/16 08:46:35;;;;;;;8.50;1.95;;;20.60;99.90;;;;;;5069136;28;20056;-84
2022/05/16 08:49:13;;;;;;;11.00;2.10;;;20.80;99.90;;;;;;5069163;28;20055;-84
2022/05/16 08:51:41;;;;;;;14.45;2.60;;;21.00;99.90;;;;;;5070701;28;20094;-84
2022/05/16 08:54:29;;;;;;;11.68;2.20;;;21.20;99.90;;;;;;5068676;28;20125;-83
2022/05/16 08:57:00;;;;;;;13.30;2.35;;;21.40;99.90;;;;;;5069743;28;20044;-84
2022/05/16 08:59:28;;;;;;;13.98;2.15;;;21.50;99.90;;;;;;5040882;28;20049;-85
2022/05/16 09:01:59;;;;;;;10.88;2.28;;;21.60;99.90;;;;;;5033704;28;20084;-84
2022/05/16 09:04:35;;;;;;;15.73;2.30;;;21.70;99.90;;;;;;5048714;28;20044;-85
2022/05/16 09:07:17;;;;;;;9.45;2.08;;;21.90;99.90;;;;;;5032915;28;20052;-84
2022/05/16 09:09:52;;;;;;;14.35;2.67;;;22.10;99.90;;;;;;5032645;28;20041;-84
2022/05/16 09:12:25;;;;;;;6.18;2.35;;;22.40;99.90;;;;;;5032121;28;20057;-83
2022/05/16 09:14:57;;;;;;;9.68;2.33;;;22.70;99.90;;;;;;5049198;28;20033;-83
2022/05/16 09:17:31;;;;;;;11.98;2.25;;;22.80;99.90;;;;;;5049165;28;20052;-83
2022/05/16 09:20:07;;;;;;;14.15;2.13;;;22.90;99.90;;;;;;5049282;28;20061;-84
2022/05/16 09:22:50;;;;;;;7.80;2.40;;;23.00;99.90;;;;;;5048580;28;20037;-84
2022/05/16 09:25:22;;;;;;;10.45;2.55;;;22.90;99.90;;;;;;5031704;28;20516;-84
2022/05/16 09:30:41;;;;;;;8.95;2.70;;;22.70;99.90;;;;;;5048146;28;20144;-84
2022/05/16 09:33:13;;;;;;;10.50;2.33;;;22.60;99.90;;;;;;5051516;28;20044;-84
2022/05/16 09:35:55;;;;;;;12.93;2.20;;;22.60;99.90;;;;;;5073405;28;20043;-88
2022/05/16 09:38:22;;;;;;;10.00;2.25;;;22.60;99.90;;;;;;5083307;28;20070;-82
2022/05/16 09:41:09;;;;;;;11.30;2.55;;;22.60;99.90;;;;;;5076055;28;20039;-85
2022/05/16 09:43:43;;;;;;;13.85;2.03;;;22.70;99.90;;;;;;5066533;28;20509;-82
2022/05/16 09:46:32;;;;;;;12.30;2.50;;;22.90;99.90;;;;;;5076555;28;20050;-83
2022/05/16 09:49:19;;;;;;;9.23;1.90;;;23.00;99.90;;;;;;5060642;28;20459;-83
2022/05/16 09:51:49;;;;;;;8.45;2.40;;;23.10;99.90;;;;;;5078730;28;20045;-82
2022/05/16 09:54:20;;;;;;;12.40;2.63;;;23.20;99.90;;;;;;5080513;28;20040;-83
2022/05/16 09:56:58;;;;;;;11.48;2.42;;;23.30;99.90;;;;;;5071113;28;20503;-82
2022/05/16 09:59:47;;;;;;;11.05;2.33;;;23.40;99.90;;;;;;5073392;28;20490;-84
2022/05/16 10:02:27;;;;;;;9.73;2.17;;;23.70;99.90;;;;;;5094656;28;20104;-86
2022/05/16 10:05:05;;;;;;;10.82;2.30;;;23.80;99.90;;;;;;5082062;28;20036;-88
2022/05/16 10:07:45;;;;;;;18.40;2.47;;;23.70;98.80;;;;;;5083304;28;20036;-87
2022/05/16 10:10:16;;;;;;;10.65;2.10;;;23.60;97.80;;;;;;5099237;28;20048;-86
2022/05/16 10:12:41;;;;;;;13.48;2.55;;;23.60;97.30;;;;;;5088300;28;20043;-86
2022/05/16 10:15:09;;;;;;;14.57;2.38;;;23.80;97.90;;;;;;5087886;28;20054;-86
2022/05/16 10:17:37;;;;;;;8.32;2.38;;;24.00;97.20;;;;;;5097155;28;20048;-86
2022/05/16 10:20:08;;;;;;;12.82;2.00;;;24.20;98.10;;;;;;5092236;28;20048;-87
2022/05/16 10:22:34;;;;;;;9.95;2.03;;;24.40;97.20;;;;;;5103398;28;20046;-87
2022/05/16 10:25:03;;;;;;;10.65;2.42;;;24.60;96.20;;;;;;5083045;28;20101;-87
2022/05/16 10:27:35;;;;;;;12.93;2.60;;;24.80;95.60;;;;;;5076363;28;20123;-87
2022/05/16 10:30:07;;;;;;;16.03;2.83;;;25.00;95.40;;;;;;5072195;28;20123;-87
2022/05/16 10:35:29;;;;;;;7.95;1.90;;;25.50;94.00;;;;;;5095770;28;20495;-88
2022/05/16 10:38:00;;;;;;;18.77;2.72;;;25.50;92.50;;;;;;5083900;28;20053;-87
2022/05/16 10:40:37;;;;;;;14.93;2.25;;;25.40;92.20;;;;;;5097342;28;20039;-87
2022/05/16 10:43:03;;;;;;;47.80;3.15;;;25.30;92.00;;;;;;5070512;28;20100;-88
2022/05/16 10:45:31;;;;;;;8.75;2.05;;;25.30;92.50;;;;;;5108220;28;20180;-87
2022/05/16 10:48:08;;;;;;;17.35;2.50;;;25.20;92.50;;;;;;5103657;28;20665;-88
2022/05/16 10:50:46;;;;;;;10.43;2.45;;;25.20;92.10;;;;;;5075211;28;20048;-87
2022/05/16 10:53:20;;;;;;;12.52;2.28;;;25.10;91.60;;;;;;5097951;28;20040;-88
2022/05/16 10:55:55;;;;;;;11.02;2.67;;;25.20;92.20;;;;;;5080478;28;20043;-87
2022/05/16 10:58:38;;;;;;;10.85;2.80;;;25.40;92.00;;;;;;5113027;27;20050;-86
2022/05/16 11:01:11;;;;;;;16.02;2.42;;;25.50;91.50;;;;;;5065804;28;20043;-88
2022/05/16 11:03:53;;;;;;;13.35;2.42;;;25.40;91.00;;;;;;5094239;28;20047;-87
2022/05/16 11:06:40;;;;;;;13.85;1.98;;;25.40;91.70;;;;;;5090268;28;20474;-87
2022/05/16 11:09:30;;;;;;;7.28;2.00;;;25.30;92.80;;;;;;5094332;27;20108;-87
2022/05/16 11:12:05;;;;;;;8.70;1.98;;;25.20;92.00;;;;;;5094823;28;20157;-88
2022/05/16 11:14:51;;;;;;;9.68;2.05;;;25.20;92.20;;;;;;5084023;28;20096;-86
2022/05/16 11:17:26;;;;;;;10.60;2.10;;;25.20;93.30;;;;;;5093290;27;20051;-87
2022/05/16 11:20:08;;;;;;;12.50;2.10;;;25.30;92.60;;;;;;5109662;27;20035;-87
2022/05/16 11:22:40;;;;;;;11.05;2.10;;;25.40;92.50;;;;;;5076123;28;20050;-87
2022/05/16 11:25:16;;;;;;;8.82;2.10;;;25.60;93.50;;;;;;5095018;27;20049;-88
2022/05/16 11:28:04;;;;;;;12.18;2.30;;;25.60;92.10;;;;;;5101093;28;20040;-87
2022/05/16 11:30:43;;;;;;;10.35;1.83;;;25.70;91.50;;;;;;5100411;28;20050;-87
2022/05/16 11:33:40;;;;;;;12.25;1.83;;;25.50;90.10;;;;;;5110920;27;20133;-87
2022/05/16 11:36:17;;;;;;;9.25;2.20;;;25.40;90.80;;;;;;5084599;27;20042;-88
2022/05/16 11:38:50;;;;;;;9.20;1.95;;;25.20;91.00;;;;;;5095000;27;20036;-87
2022/05/16 11:41:31;;;;;;;12.32;2.35;;;25.10;90.80;;;;;;5082773;28;20044;-87
2022/05/16 11:44:20;;;;;;;10.07;1.90;;;25.00;90.40;;;;;;5069234;28;20528;-86
2022/05/16 11:47:10;;;;;;;8.38;1.60;;;24.90;89.20;;;;;;5103827;27;20095;-87
2022/05/16 11:49:59;;;;;;;8.73;1.80;;;24.80;90.30;;;;;;5074691;28;20051;-87
2022/05/16 11:52:46;;;;;;;9.23;2.00;;;24.70;91.10;;;;;;5087449;27;20027;-87
2022/05/16 12:01:30;;;;;;;4.78;1.50;;;24.60;91.90;;;;;;5095517;27;20436;-85
2022/05/16 12:04:05;;;;;;;6.13;2.20;;;24.60;91.90;;;;;;5101484;27;20494;-85
2022/05/16 12:06:37;;;;;;;7.43;2.50;;;24.60;93.30;;;;;;5109142;27;20454;-86
2022/05/16 12:09:23;;;;;;;7.95;1.80;;;24.60;92.00;;;;;;5101584;27;20056;-85
2022/05/16 12:11:51;;;;;;;11.30;2.30;;;24.60;92.30;;;;;;5099646;27;20089;-85
2022/05/16 12:14:34;;;;;;;10.00;2.33;;;24.60;92.50;;;;;;5090323;28;20499;-84
2022/05/16 12:17:18;;;;;;;13.80;2.63;;;24.60;92.30;;;;;;5095072;28;20043;-84
2022/05/16 12:19:49;;;;;;;8.18;2.13;;;24.60;93.50;;;;;;5085279;28;20363;-84
2022/05/16 12:22:44;;;;;;;9.00;3.08;;;24.60;93.50;;;;;;5105552;28;20455;-83
2022/05/16 12:25:30;;;;;;;17.75;4.30;;;24.50;93.80;;;;;;5102738;28;20490;-84
2022/05/16 12:28:21;;;;;;;16.45;3.50;;;24.50;93.30;;;;;;5089435;28;20115;-84
2022/05/16 12:30:54;;;;;;;18.08;3.05;;;24.60;94.40;;;;;;5088205;28;20092;-84
2022/05/16 12:33:24;;;;;;;8.63;2.00;;;24.60;94.50;;;;;;5090365;28;20502;-83
2022/05/16 12:35:53;;;;;;;8.27;2.58;;;24.70;95.60;;;;;;5103279;28;20126;-84
2022/05/16 12:38:21;;;;;;;12.20;2.50;;;24.80;96.20;;;;;;5108151;28;20051;-84
2022/05/16 12:40:47;;;;;;;8.40;2.17;;;24.90;95.90;;;;;;5093992;28;20043;-84
2022/05/16 12:43:28;;;;;;;9.95;2.10;;;24.90;96.90;;;;;;5073281;28;20556;-85
2022/05/16 12:46:23;;;;;;;12.05;2.72;;;24.90;97.10;;;;;;5093566;28;20035;-84
2022/05/16 12:48:52;;;;;;;10.73;2.40;;;25.00;96.30;;;;;;5066436;28;20052;-85
2022/05/16 12:51:26;;;;;;;13.52;2.55;;;24.90;96.10;;;;;;5100329;28;20580;-85
2022/05/16 12:54:21;;;;;;;12.25;3.15;;;24.80;96.30;;;;;;5075317;28;20134;-85
2022/05/16 12:56:54;;;;;;;8.98;2.15;;;24.70;97.10;;;;;;5074748;28;20181;-86
2022/05/16 12:59:47;;;;;;;13.43;2.47;;;24.60;97.60;;;;;;5105347;28;20130;-86
2022/05/16 13:02:29;;;;;;;11.10;2.10;;;24.60;97.00;;;;;;5058141;28;20406;-85
2022/05/16 13:05:06;;;;;;;8.48;2.30;;;24.50;97.20;;;;;;5077943;28;20067;-84
2022/05/16 13:07:52;;;;;;;15.68;2.97;;;24.50;98.10;;;;;;5087825;28;20070;-86
2022/05/16 13:10:34;;;;;;;9.02;2.20;;;24.40;97.10;;;;;;5106294;28;20039;-85
2022/05/16 13:13:13;;;;;;;10.63;2.28;;;24.30;97.70;;;;;;5089067;28;20104;-85
2022/05/16 13:15:56;;;;;;;10.50;2.38;;;24.30;98.00;;;;;;5104443;28;20558;-85
2022/05/16 13:18:26;;;;;;;12.38;2.72;;;24.20;99.00;;;;;;5088621;28;20051;-86
2022/05/16 13:20:56;;;;;;;12.40;2.90;;;24.20;98.80;;;;;;5077915;28;20058;-85
2022/05/16 13:23:22;;;;;;;10.75;2.85;;;24.30;99.50;;;;;;5078101;28;20048;-85
2022/05/16 13:31:33;;;;;;;15.35;3.38;;;24.40;99.70;;;;;;5082935;28;20123;-84
2022/05/16 13:34:00;;;;;;;14.02;3.55;;;24.40;99.90;;;;;;5084558;28;20048;-85
2022/05/16 13:36:26;;;;;;;13.55;2.95;;;24.50;99.90;;;;;;5099846;28;20040;-85
2022/05/16 13:38:54;;;;;;;9.68;2.67;;;24.40;99.90;;;;;;5086819;28;20036;-86
2022/05/16 13:41:23;;;;;;;11.27;3.00;;;24.40;99.90;;;;;;5076612;28;20040;-86